Time;durP1;ratioP1;P1;durP2;ratioP2;P2;SDS_P1;SDS_P2;PMS_P1;PMS_P2;Temp;Humidity;BMP_temperature;BMP_pressure;BME280_temperature;BME280_humidity;BME280_pressure;Samples;Min_cycle;Max_cycle;Signal;HPM_P1;HPM_P2
2023/04/09 00:01:09;;;;;;;31.13;20.53;;;11.70;84.10;;;;;;5052598;28;20025;-77
2023/04/09 00:03:36;;;;;;;32.40;20.95;;;11.70;84.20;;;;;;5052526;28;20021;-77
2023/04/09 00:06:03;;;;;;;32.93;21.03;;;11.80;84.20;;;;;;5052768;28;20033;-78
2023/04/09 00:08:28;;;;;;;31.73;20.90;;;11.70;84.40;;;;;;5052564;28;20036;-78
2023/04/09 00:10:54;;;;;;;32.50;21.87;;;11.70;84.50;;;;;;5035878;28;20477;-77
2023/04/09 00:13:20;;;;;;;32.03;20.70;;;11.60;84.70;;;;;;5019548;28;20040;-77
2023/04/09 00:15:46;;;;;;;29.07;20.17;;;11.70;84.70;;;;;;5019308;28;20465;-78
2023/04/09 00:18:13;;;;;;;30.47;20.10;;;11.70;84.90;;;;;;5035795;28;20488;-77
2023/04/09 00:20:38;;;;;;;31.60;19.38;;;11.60;84.90;;;;;;5035712;28;20025;-78
2023/04/09 00:23:04;;;;;;;30.63;21.10;;;11.60;85.00;;;;;;5019124;28;20040;-77
2023/04/09 00:25:30;;;;;;;32.28;20.38;;;11.60;85.00;;;;;;5035497;28;20029;-77
2023/04/09 00:27:56;;;;;;;35.38;21.08;;;11.60;85.10;;;;;;5052340;28;20036;-78
2023/04/09 00:30:22;;;;;;;29.65;19.08;;;11.60;85.10;;;;;;5052173;28;20021;-77
2023/04/09 00:32:48;;;;;;;30.90;19.93;;;11.60;85.20;;;;;;5019034;28;20029;-77
2023/04/09 00:35:15;;;;;;;33.28;21.67;;;11.60;85.30;;;;;;5019245;28;20052;-78
2023/04/09 00:37:40;;;;;;;31.92;20.10;;;11.60;85.50;;;;;;5035405;28;20033;-78
2023/04/09 00:40:07;;;;;;;35.57;21.93;;;11.60;85.50;;;;;;5035287;28;20079;-78
2023/04/09 00:42:34;;;;;;;32.83;20.92;;;11.60;85.60;;;;;;5035225;28;20025;-77
2023/04/09 00:45:00;;;;;;;33.20;20.27;;;11.60;85.70;;;;;;5051993;28;20565;-77
2023/04/09 00:47:28;;;;;;;34.95;20.77;;;11.50;85.70;;;;;;5035265;28;20123;-77
2023/04/09 00:49:54;;;;;;;30.23;19.77;;;11.60;86.00;;;;;;5053062;28;20079;-78
2023/04/09 00:52:20;;;;;;;30.83;21.13;;;11.60;86.00;;;;;;5035167;28;20043;-78
2023/04/09 00:54:51;;;;;;;31.02;19.80;;;11.50;86.00;;;;;;5051800;28;20028;-77
2023/04/09 00:57:17;;;;;;;30.50;19.67;;;11.50;86.10;;;;;;5051508;28;20045;-78
2023/04/09 00:59:43;;;;;;;31.63;20.40;;;11.60;86.30;;;;;;5051713;28;20028;-77
2023/04/09 01:02:09;;;;;;;33.05;21.83;;;11.50;86.30;;;;;;5051772;28;20389;-82
2023/04/09 01:04:36;;;;;;;33.47;21.50;;;11.60;86.50;;;;;;5035187;28;20056;-84
2023/04/09 01:07:22;;;;;;;31.63;20.30;;;11.50;86.40;;;;;;5019185;28;20496;-83
2023/04/09 01:10:18;;;;;;;32.28;20.90;;;11.60;86.60;;;;;;5052581;28;20397;-83
2023/04/09 01:13:01;;;;;;;32.65;19.88;;;11.60;86.60;;;;;;5051662;28;20063;-83
2023/04/09 01:15:32;;;;;;;30.83;20.33;;;11.50;86.70;;;;;;5051584;28;20071;-82
2023/04/09 01:18:06;;;;;;;34.28;22.60;;;11.50;86.70;;;;;;5051461;28;20492;-83
2023/04/09 01:20:40;;;;;;;31.00;19.65;;;11.50;86.70;;;;;;5051604;28;20051;-82
2023/04/09 01:23:08;;;;;;;;;;;11.50;86.90;;;;;;5051916;28;20044;-83
2023/04/09 01:26:01;;;;;;;32.15;20.48;;;11.50;86.90;;;;;;5051448;28;19908;-82
2023/04/09 01:28:34;;;;;;;32.93;20.40;;;11.50;86.90;;;;;;5051509;28;20021;-83
2023/04/09 01:31:17;;;;;;;29.85;19.05;;;11.50;87.00;;;;;;5051465;28;20029;-83
2023/04/09 01:33:44;;;;;;;35.07;21.53;;;11.50;87.20;;;;;;5051562;28;20469;-83
2023/04/09 01:36:10;;;;;;;30.63;20.17;;;11.50;87.30;;;;;;5051363;28;20116;-83
2023/04/09 01:38:40;;;;;;;34.40;21.88;;;11.50;87.30;;;;;;5051214;28;20483;-82
2023/04/09 01:41:06;;;;;;;31.83;20.05;;;11.50;87.40;;;;;;5051255;28;20020;-83
2023/04/09 01:43:33;;;;;;;34.57;20.70;;;11.50;87.40;;;;;;5034689;28;20120;-83
2023/04/09 01:46:01;;;;;;;30.15;20.38;;;11.50;87.50;;;;;;5052675;28;20052;-83
2023/04/09 01:48:29;;;;;;;30.27;19.52;;;11.50;87.60;;;;;;5051230;28;20028;-83
2023/04/09 01:50:55;;;;;;;31.50;20.03;;;11.40;87.70;;;;;;5051787;28;20032;-82
2023/04/09 01:53:21;;;;;;;31.40;20.50;;;11.50;87.70;;;;;;5052979;28;20041;-78
2023/04/09 01:55:47;;;;;;;31.67;20.90;;;11.40;87.70;;;;;;5051294;28;20467;-77
2023/04/09 01:58:13;;;;;;;32.33;21.03;;;11.40;87.80;;;;;;5071954;28;20045;-78
2023/04/09 02:00:45;;;;;;;29.75;19.10;;;11.40;87.90;;;;;;5054466;28;20021;-78
2023/04/09 02:03:23;;;;;;;37.60;21.30;;;11.40;88.00;;;;;;5039231;28;20044;-78
2023/04/09 02:05:56;;;;;;;32.00;20.40;;;11.40;88.10;;;;;;5058167;28;20012;-77
2023/04/09 02:08:23;;;;;;;32.63;21.55;;;11.40;88.20;;;;;;5058103;28;20008;-77
2023/04/09 02:10:54;;;;;;;32.00;20.17;;;11.40;88.40;;;;;;5041405;28;20468;-78
2023/04/09 02:13:20;;;;;;;29.45;19.50;;;11.30;88.40;;;;;;5057926;28;20090;-78
2023/04/09 02:15:47;;;;;;;32.37;20.80;;;11.40;88.60;;;;;;5041308;28;20056;-78
2023/04/09 02:18:27;;;;;;;32.50;21.00;;;11.30;88.60;;;;;;5057829;28;20021;-82
2023/04/09 02:20:56;;;;;;;32.60;20.58;;;11.30;89.00;;;;;;5057803;28;20399;-82
2023/04/09 02:23:22;;;;;;;34.72;20.27;;;11.30;88.90;;;;;;5057801;28;20013;-82
2023/04/09 02:25:49;;;;;;;32.73;20.80;;;11.40;89.30;;;;;;5041290;28;20020;-82
2023/04/09 02:28:15;;;;;;;31.95;21.17;;;11.30;89.30;;;;;;5041153;28;20457;-82
2023/04/09 02:30:41;;;;;;;29.73;19.05;;;11.30;89.10;;;;;;5075572;28;20017;-83
2023/04/09 02:33:06;;;;;;;28.55;18.75;;;11.30;88.90;;;;;;5075524;28;20035;-83
2023/04/09 02:35:32;;;;;;;31.63;19.90;;;11.30;88.90;;;;;;5037639;28;20075;-82
2023/04/09 02:37:58;;;;;;;30.20;19.30;;;11.30;89.00;;;;;;5021397;28;20041;-83
2023/04/09 02:40:24;;;;;;;30.33;19.33;;;11.30;89.10;;;;;;5037434;28;20112;-83
2023/04/09 02:42:51;;;;;;;29.90;19.17;;;11.20;89.10;;;;;;5055692;28;20508;-83
2023/04/09 02:45:17;;;;;;;33.47;20.87;;;11.30;89.20;;;;;;5037808;28;20115;-83
2023/04/09 02:47:43;;;;;;;29.60;19.03;;;11.20;89.10;;;;;;5037652;28;20124;-82
2023/04/09 02:50:08;;;;;;;30.63;19.80;;;11.20;89.50;;;;;;5037819;28;20036;-82
2023/04/09 02:52:34;;;;;;;31.47;20.20;;;11.20;89.20;;;;;;5037413;28;20388;-82
2023/04/09 02:55:00;;;;;;;30.10;19.10;;;11.30;89.30;;;;;;5037461;28;20040;-82
2023/04/09 02:57:25;;;;;;;32.73;21.63;;;11.20;89.30;;;;;;5036991;28;20045;-83
2023/04/09 02:59:51;;;;;;;33.87;21.80;;;11.20;89.30;;;;;;5020845;28;20025;-82
2023/04/09 03:02:16;;;;;;;31.93;21.73;;;11.20;89.20;;;;;;5020673;28;20096;-83
2023/04/09 03:04:42;;;;;;;33.97;22.03;;;11.20;89.00;;;;;;5020662;28;20075;-83
2023/04/09 03:07:08;;;;;;;31.67;20.80;;;11.20;89.00;;;;;;5036529;28;20036;-83
2023/04/09 03:09:34;;;;;;;33.17;23.03;;;11.20;89.10;;;;;;5039000;28;20037;-82
2023/04/09 03:12:00;;;;;;;35.07;21.87;;;11.20;89.00;;;;;;5074751;28;20032;-83
2023/04/09 03:14:26;;;;;;;29.87;20.20;;;11.20;89.00;;;;;;5039999;28;20116;-82
2023/04/09 03:16:52;;;;;;;34.67;20.70;;;11.20;89.00;;;;;;5056577;28;20592;-82
2023/04/09 03:19:17;;;;;;;32.10;20.88;;;11.20;89.00;;;;;;5056848;28;20108;-83
2023/04/09 03:21:43;;;;;;;30.53;19.93;;;11.20;89.00;;;;;;5056736;28;20060;-82
2023/04/09 03:24:09;;;;;;;33.20;21.50;;;11.20;89.00;;;;;;5023568;28;20063;-83
2023/04/09 03:26:37;;;;;;;29.73;20.30;;;11.20;89.20;;;;;;5056633;28;20025;-83
2023/04/09 03:29:06;;;;;;;32.20;21.43;;;11.20;89.40;;;;;;5024223;28;20416;-82
2023/04/09 03:31:32;;;;;;;31.57;20.50;;;11.10;89.50;;;;;;5074453;28;20082;-82
2023/04/09 03:33:58;;;;;;;32.23;21.00;;;11.20;89.60;;;;;;5040066;28;20480;-82
2023/04/09 03:36:24;;;;;;;34.67;21.17;;;11.10;89.80;;;;;;5074129;28;20028;-83
2023/04/09 03:38:50;;;;;;;32.47;21.07;;;11.10;89.70;;;;;;5039691;28;20025;-82
2023/04/09 03:41:15;;;;;;;33.30;20.87;;;11.10;89.80;;;;;;5023290;28;20102;-82
2023/04/09 03:43:41;;;;;;;32.60;20.63;;;11.10;90.00;;;;;;5053591;28;20193;-83
2023/04/09 03:46:14;;;;;;;38.67;24.70;;;11.10;90.10;;;;;;5036474;28;20040;-82
2023/04/09 03:48:41;;;;;;;39.03;24.25;;;11.10;90.10;;;;;;5019751;28;20032;-81
2023/04/09 03:51:14;;;;;;;38.17;23.57;;;11.10;90.10;;;;;;5036460;28;20112;-82
2023/04/09 03:53:40;;;;;;;37.07;23.53;;;11.00;90.10;;;;;;5054471;28;20029;-82
2023/04/09 03:56:07;;;;;;;33.40;21.60;;;11.00;90.20;;;;;;5019579;28;20738;-82
2023/04/09 03:58:33;;;;;;;34.90;23.27;;;11.10;90.20;;;;;;5054174;28;20029;-82
2023/04/09 04:00:58;;;;;;;31.90;20.13;;;11.00;90.20;;;;;;5036177;28;20028;-82
2023/04/09 04:03:24;;;;;;;34.97;21.07;;;11.00;90.20;;;;;;5019852;28;20124;-82
2023/04/09 04:05:50;;;;;;;32.33;21.83;;;11.00;90.30;;;;;;5056474;28;20063;-82
2023/04/09 04:08:16;;;;;;;30.90;20.13;;;11.00;90.30;;;;;;5022712;28;20119;-82
2023/04/09 04:10:41;;;;;;;31.30;19.63;;;11.00;90.40;;;;;;5022680;28;20036;-83
2023/04/09 04:13:07;;;;;;;33.27;21.13;;;11.00;90.50;;;;;;5052865;28;20020;-82
2023/04/09 04:15:39;;;;;;;32.43;21.30;;;11.00;90.40;;;;;;5037695;28;20420;-82
2023/04/09 04:18:05;;;;;;;33.10;21.50;;;11.00;90.50;;;;;;5053844;28;20028;-82
2023/04/09 04:20:35;;;;;;;32.00;20.07;;;11.00;90.50;;;;;;5021817;28;20223;-82
2023/04/09 04:23:00;;;;;;;30.20;20.13;;;10.90;90.50;;;;;;5039085;28;20024;-83
2023/04/09 04:25:26;;;;;;;30.50;20.50;;;10.90;90.40;;;;;;5038917;28;20017;-82
2023/04/09 04:27:53;;;;;;;30.40;19.20;;;10.90;90.50;;;;;;5054140;28;20024;-82
2023/04/09 04:30:22;;;;;;;31.93;21.37;;;10.90;90.50;;;;;;5039262;28;20400;-82
2023/04/09 04:32:48;;;;;;;30.03;20.53;;;10.90;90.50;;;;;;5055989;28;20052;-82
2023/04/09 04:35:14;;;;;;;31.93;20.93;;;10.90;90.60;;;;;;5021034;28;20043;-83
2023/04/09 04:37:39;;;;;;;30.93;19.43;;;10.80;90.60;;;;;;5051840;28;20147;-82
2023/04/09 04:40:06;;;;;;;32.93;21.53;;;10.80;90.60;;;;;;5035144;28;20021;-82
2023/04/09 04:42:33;;;;;;;35.20;21.60;;;10.80;90.60;;;;;;5035617;28;20021;-82
2023/04/09 04:44:58;;;;;;;32.10;20.43;;;10.80;90.60;;;;;;5035581;28;20091;-84
2023/04/09 04:47:24;;;;;;;31.27;20.83;;;10.80;90.60;;;;;;5022151;28;20389;-86
2023/04/09 04:49:50;;;;;;;31.80;19.23;;;10.70;90.60;;;;;;5048715;28;20029;-85
2023/04/09 04:52:15;;;;;;;34.23;21.20;;;10.70;90.50;;;;;;5055465;28;20054;-84
2023/04/09 04:54:41;;;;;;;35.33;21.73;;;10.70;90.50;;;;;;5055888;28;20025;-85
2023/04/09 04:57:06;;;;;;;35.50;22.40;;;10.70;90.60;;;;;;5034573;28;20554;-85
2023/04/09 04:59:32;;;;;;;31.60;19.70;;;10.70;90.50;;;;;;5018275;28;20409;-85
2023/04/09 05:01:58;;;;;;;34.57;21.63;;;10.60;90.40;;;;;;5033708;28;20032;-84
2023/04/09 05:04:23;;;;;;;32.40;20.83;;;10.60;90.70;;;;;;5034980;28;20021;-85
2023/04/09 05:06:49;;;;;;;32.03;19.67;;;10.50;90.30;;;;;;5052054;28;20423;-86
2023/04/09 05:09:15;;;;;;;32.77;19.77;;;10.50;90.30;;;;;;5052132;28;20029;-85
2023/04/09 05:11:41;;;;;;;31.40;20.30;;;10.40;90.30;;;;;;5054160;28;20505;-85
2023/04/09 05:14:06;;;;;;;32.43;20.63;;;10.40;90.20;;;;;;5036371;28;20060;-85
2023/04/09 05:16:32;;;;;;;31.13;19.43;;;10.30;90.20;;;;;;5018791;28;20025;-85
2023/04/09 05:18:58;;;;;;;30.97;18.50;;;10.20;90.20;;;;;;5035454;28;20079;-85
2023/04/09 05:21:23;;;;;;;32.23;19.70;;;10.20;90.10;;;;;;5035314;28;20017;-85
2023/04/09 05:23:49;;;;;;;30.13;19.93;;;10.10;90.10;;;;;;5035926;28;20465;-85
2023/04/09 05:26:15;;;;;;;30.77;18.00;;;10.00;90.10;;;;;;5036227;28;20029;-85
2023/04/09 05:28:41;;;;;;;31.43;18.07;;;9.90;90.10;;;;;;5036973;28;20079;-84
2023/04/09 05:31:11;;;;;;;30.93;19.27;;;9.90;90.10;;;;;;5051936;28;20528;-84
2023/04/09 05:33:38;;;;;;;29.37;17.77;;;9.80;90.10;;;;;;5013084;28;20111;-85
2023/04/09 05:36:04;;;;;;;29.70;18.23;;;9.80;90.10;;;;;;5052007;28;20033;-85
2023/04/09 05:38:30;;;;;;;29.73;19.07;;;9.70;90.10;;;;;;5019347;28;20565;-85
2023/04/09 05:40:55;;;;;;;29.80;16.87;;;9.70;90.10;;;;;;5039418;28;20049;-84
2023/04/09 05:43:21;;;;;;;26.77;18.17;;;9.60;90.10;;;;;;5022705;28;20056;-85
2023/04/09 05:45:47;;;;;;;30.80;18.83;;;9.60;90.10;;;;;;5022576;28;20025;-84
2023/04/09 05:48:12;;;;;;;30.90;19.47;;;9.50;90.20;;;;;;5038686;28;20070;-83
2023/04/09 05:50:38;;;;;;;31.83;18.80;;;9.50;90.30;;;;;;5022310;28;20036;-84
2023/04/09 05:53:04;;;;;;;31.50;19.33;;;9.50;90.30;;;;;;5038779;28;20087;-82
2023/04/09 05:55:32;;;;;;;30.60;17.97;;;9.40;90.40;;;;;;5038559;28;20044;-83
2023/04/09 05:57:59;;;;;;;29.03;17.93;;;9.40;90.40;;;;;;5021481;28;20049;-84
2023/04/09 06:00:25;;;;;;;33.90;19.60;;;9.30;90.50;;;;;;5045109;28;20044;-83
2023/04/09 06:02:50;;;;;;;30.97;17.43;;;9.30;90.50;;;;;;5076669;28;20024;-84
2023/04/09 06:05:16;;;;;;;33.10;19.77;;;9.30;90.60;;;;;;5058143;28;20431;-84
2023/04/09 06:07:42;;;;;;;33.37;19.90;;;9.30;90.70;;;;;;5025302;28;20037;-84
2023/04/09 06:10:08;;;;;;;28.30;18.37;;;9.30;90.70;;;;;;5041606;28;20082;-84
2023/04/09 06:12:36;;;;;;;28.87;17.70;;;9.30;90.80;;;;;;5076168;28;20487;-84
2023/04/09 06:15:04;;;;;;;35.70;20.20;;;9.30;90.80;;;;;;5041709;28;20048;-83
2023/04/09 06:17:30;;;;;;;35.63;19.30;;;9.30;90.90;;;;;;5058080;28;20054;-83
2023/04/09 06:19:55;;;;;;;32.57;19.53;;;9.30;90.90;;;;;;5058154;28;20029;-83
2023/04/09 06:22:21;;;;;;;32.93;20.50;;;9.30;90.90;;;;;;5025214;28;20025;-83
2023/04/09 06:24:46;;;;;;;36.07;20.23;;;9.30;91.00;;;;;;5057978;28;20035;-83
2023/04/09 06:27:12;;;;;;;34.97;19.83;;;9.30;91.00;;;;;;5024989;28;20086;-83
2023/04/09 06:29:38;;;;;;;35.03;20.80;;;9.30;91.10;;;;;;5041748;28;20488;-83
2023/04/09 06:32:04;;;;;;;35.87;20.80;;;9.30;91.00;;;;;;5075874;28;20033;-83
2023/04/09 06:34:30;;;;;;;38.90;22.10;;;9.30;91.00;;;;;;5057882;28;20081;-83
2023/04/09 06:36:55;;;;;;;35.10;21.57;;;9.30;91.10;;;;;;5057380;28;20036;-84
2023/04/09 06:39:21;;;;;;;35.13;21.27;;;9.30;91.10;;;;;;5041383;28;20036;-83
2023/04/09 06:41:47;;;;;;;33.03;20.10;;;9.30;91.10;;;;;;5057935;28;20117;-83
2023/04/09 06:44:13;;;;;;;34.87;21.07;;;9.30;91.20;;;;;;5041057;28;20448;-83
2023/04/09 06:46:38;;;;;;;34.63;21.53;;;9.40;91.20;;;;;;5037100;28;20443;-83
2023/04/09 06:49:04;;;;;;;38.93;21.93;;;9.30;91.20;;;;;;5062526;28;20033;-83
2023/04/09 06:51:30;;;;;;;39.60;22.13;;;9.40;91.20;;;;;;5037313;28;20036;-83
2023/04/09 06:53:56;;;;;;;36.73;21.80;;;9.40;91.20;;;;;;5021306;28;20095;-83
2023/04/09 06:56:22;;;;;;;38.13;22.87;;;9.40;91.30;;;;;;5036960;28;20489;-83
2023/04/09 06:58:47;;;;;;;38.50;23.13;;;9.40;91.40;;;;;;5055230;28;20029;-83
2023/04/09 07:01:13;;;;;;;40.47;24.20;;;9.40;91.40;;;;;;5020961;28;20032;-83
2023/04/09 07:03:39;;;;;;;40.57;24.27;;;9.40;91.40;;;;;;5053712;28;20052;-84
2023/04/09 07:06:05;;;;;;;37.17;22.47;;;9.40;91.40;;;;;;5021977;28;20021;-84
2023/04/09 07:08:30;;;;;;;34.67;21.97;;;9.40;91.40;;;;;;5046046;28;20031;-84
2023/04/09 07:10:56;;;;;;;37.13;23.00;;;9.40;91.50;;;;;;5028254;28;20040;-83
2023/04/09 07:13:22;;;;;;;35.17;20.67;;;9.40;91.40;;;;;;5079049;28;20025;-83
2023/04/09 07:15:47;;;;;;;36.43;22.67;;;9.40;91.40;;;;;;5045556;28;20098;-84
2023/04/09 07:18:13;;;;;;;35.40;20.87;;;9.40;91.70;;;;;;5042040;28;20407;-83
2023/04/09 07:20:39;;;;;;;35.00;20.97;;;9.50;91.50;;;;;;5056860;28;20028;-84
2023/04/09 07:23:04;;;;;;;36.13;22.00;;;9.40;91.60;;;;;;5056901;28;20033;-82
2023/04/09 07:25:31;;;;;;;38.20;22.97;;;9.50;91.60;;;;;;5024062;28;20028;-83
2023/04/09 07:27:57;;;;;;;35.23;20.23;;;9.50;91.70;;;;;;5039971;28;20024;-83
2023/04/09 07:30:22;;;;;;;37.03;22.57;;;9.50;91.60;;;;;;5040185;28;20035;-84
2023/04/09 07:32:48;;;;;;;34.53;21.47;;;9.60;91.70;;;;;;5023449;28;20029;-84
2023/04/09 07:35:14;;;;;;;36.33;20.40;;;9.60;91.60;;;;;;5039836;28;20028;-84
2023/04/09 07:37:39;;;;;;;32.43;20.63;;;9.60;91.90;;;;;;5023518;28;20073;-83
2023/04/09 07:40:07;;;;;;;36.40;20.77;;;9.60;91.60;;;;;;5056578;28;20024;-84
2023/04/09 07:42:32;;;;;;;31.37;19.63;;;9.70;91.70;;;;;;5023660;28;20042;-83
2023/04/09 07:44:58;;;;;;;32.03;20.10;;;9.70;91.70;;;;;;5039741;28;20024;-84
2023/04/09 07:47:24;;;;;;;34.00;21.90;;;9.80;91.70;;;;;;5056413;28;20491;-84
2023/04/09 07:49:50;;;;;;;32.87;19.90;;;9.80;91.70;;;;;;5056348;28;20024;-83
2023/04/09 07:52:15;;;;;;;35.50;20.50;;;9.90;91.70;;;;;;5038918;28;20510;-83
2023/04/09 07:54:41;;;;;;;32.70;21.03;;;9.90;91.80;;;;;;5039117;28;20020;-83
2023/04/09 07:57:07;;;;;;;33.97;19.97;;;9.90;91.70;;;;;;5055226;28;20045;-83
2023/04/09 07:59:33;;;;;;;35.10;21.17;;;10.00;91.70;;;;;;5022549;28;20044;-83
2023/04/09 08:01:59;;;;;;;30.53;18.40;;;10.00;91.70;;;;;;5038116;28;20090;-83
2023/04/09 08:04:26;;;;;;;28.90;18.67;;;10.10;91.60;;;;;;5022180;28;20024;-83
2023/04/09 08:06:52;;;;;;;33.30;19.43;;;10.20;91.70;;;;;;5039310;28;20017;-83
2023/04/09 08:09:19;;;;;;;30.33;19.57;;;10.20;91.60;;;;;;5039378;28;20029;-83
2023/04/09 08:11:46;;;;;;;33.03;19.73;;;10.30;91.60;;;;;;5039346;28;20036;-82
2023/04/09 08:14:15;;;;;;;32.40;19.43;;;10.30;91.40;;;;;;5055787;28;20392;-83
2023/04/09 08:16:43;;;;;;;32.90;20.57;;;10.40;91.40;;;;;;5056484;28;20079;-84
2023/04/09 08:19:10;;;;;;;35.63;19.20;;;10.40;91.30;;;;;;5055767;28;20021;-82
2023/04/09 08:21:42;;;;;;;30.70;18.73;;;10.50;91.20;;;;;;5055527;28;20017;-82
2023/04/09 08:24:10;;;;;;;33.10;19.80;;;10.50;91.00;;;;;;5039765;28;20252;-83
2023/04/09 08:26:37;;;;;;;30.67;19.50;;;10.60;90.90;;;;;;5055799;28;20042;-83
2023/04/09 08:29:02;;;;;;;31.25;20.40;;;10.60;90.90;;;;;;5055740;28;20537;-82
2023/04/09 08:31:28;;;;;;;29.90;18.93;;;10.60;90.90;;;;;;5055415;28;20115;-83
2023/04/09 08:33:54;;;;;;;27.53;17.87;;;10.70;91.00;;;;;;5055528;28;20082;-83
2023/04/09 08:36:20;;;;;;;30.57;18.30;;;10.80;90.70;;;;;;5055387;28;20025;-82
2023/04/09 08:38:46;;;;;;;28.87;18.93;;;10.80;90.40;;;;;;5038904;28;20021;-82
2023/04/09 08:41:19;;;;;;;31.33;18.92;;;10.90;90.00;;;;;;5072841;28;20024;-81
2023/04/09 08:43:50;;;;;;;29.80;18.45;;;11.00;89.80;;;;;;5054766;28;20431;-80
2023/04/09 08:46:16;;;;;;;28.85;18.17;;;11.00;89.30;;;;;;5053890;28;20024;-82
2023/04/09 08:48:44;;;;;;;32.15;20.05;;;11.10;88.50;;;;;;5054321;28;20495;-82
2023/04/09 08:51:15;;;;;;;31.80;19.58;;;11.10;88.90;;;;;;5053796;28;20021;-82
2023/04/09 08:53:53;;;;;;;33.55;19.52;;;11.10;88.50;;;;;;5051399;28;20029;-82
2023/04/09 08:56:20;;;;;;;27.17;16.73;;;11.20;88.20;;;;;;5035235;28;20025;-81
2023/04/09 08:58:47;;;;;;;28.52;18.80;;;11.20;88.20;;;;;;5018833;28;20033;-81
2023/04/09 09:01:28;;;;;;;27.88;16.73;;;11.40;88.20;;;;;;5002077;28;20040;-84
2023/04/09 09:04:05;;;;;;;27.35;17.45;;;11.40;88.20;;;;;;5018712;28;20032;-84
2023/04/09 09:06:40;;;;;;;27.35;17.10;;;11.50;87.50;;;;;;5035059;28;20547;-84
2023/04/09 09:09:11;;;;;;;26.73;17.27;;;11.60;86.70;;;;;;5043301;28;20033;-82
2023/04/09 09:11:40;;;;;;;30.10;17.85;;;11.70;86.40;;;;;;5038486;28;20033;-84
2023/04/09 09:14:11;;;;;;;25.65;17.92;;;11.70;85.70;;;;;;5058454;28;20086;-84
2023/04/09 09:16:42;;;;;;;24.40;16.42;;;11.80;85.70;;;;;;5042153;28;20059;-84
2023/04/09 09:19:23;;;;;;;27.35;16.63;;;11.90;85.60;;;;;;5076869;28;20465;-83
2023/04/09 09:22:03;;;;;;;24.50;16.30;;;12.00;85.10;;;;;;5058956;28;20029;-83
2023/04/09 09:24:29;;;;;;;28.83;16.83;;;12.10;84.40;;;;;;5076433;28;20020;-82
2023/04/09 09:26:58;;;;;;;24.20;16.63;;;12.20;84.20;;;;;;5076812;28;20024;-83
2023/04/09 09:29:24;;;;;;;25.77;15.98;;;12.30;83.70;;;;;;5058940;28;20029;-83
2023/04/09 09:31:52;;;;;;;28.50;17.40;;;12.30;83.00;;;;;;5076830;28;20024;-83
2023/04/09 09:34:20;;;;;;;25.38;15.70;;;12.40;81.80;;;;;;5025736;28;20024;-85
2023/04/09 09:36:46;;;;;;;25.33;16.20;;;12.40;81.60;;;;;;5026128;28;20073;-83
2023/04/09 09:39:13;;;;;;;23.88;15.38;;;12.50;80.70;;;;;;5058793;28;20426;-83
2023/04/09 09:41:42;;;;;;;25.13;14.88;;;12.60;80.60;;;;;;5042052;28;20456;-84
2023/04/09 09:44:10;;;;;;;25.38;16.38;;;12.60;80.90;;;;;;5058698;28;20566;-84
2023/04/09 09:46:41;;;;;;;24.23;15.27;;;12.70;80.60;;;;;;5042006;28;20468;-85
2023/04/09 09:49:07;;;;;;;25.25;16.77;;;12.80;80.30;;;;;;5076224;28;20096;-84
2023/04/09 09:51:36;;;;;;;21.95;15.05;;;12.90;79.70;;;;;;5076142;28;20021;-76
2023/04/09 09:54:02;;;;;;;25.85;15.70;;;12.90;79.30;;;;;;5058332;28;20017;-78
2023/04/09 09:56:34;;;;;;;25.90;16.52;;;13.00;78.90;;;;;;5041187;28;20024;-79
2023/04/09 09:59:09;;;;;;;22.02;13.93;;;13.10;78.70;;;;;;5073950;28;20082;-79
2023/04/09 10:01:36;;;;;;;22.25;14.45;;;13.20;78.80;;;;;;5073880;28;20024;-77
2023/04/09 10:04:05;;;;;;;21.90;14.80;;;13.40;78.40;;;;;;5026805;28;20025;-78
2023/04/09 10:06:33;;;;;;;23.67;15.15;;;13.50;77.60;;;;;;5036118;28;20028;-77
2023/04/09 10:09:03;;;;;;;28.70;15.95;;;13.60;77.50;;;;;;5052803;28;20021;-77
2023/04/09 10:11:30;;;;;;;22.00;13.38;;;13.70;77.10;;;;;;5054917;28;20473;-85
2023/04/09 10:13:59;;;;;;;19.23;13.05;;;13.90;76.40;;;;;;5054905;28;20036;-84
2023/04/09 10:16:28;;;;;;;20.92;13.70;;;14.20;75.50;;;;;;5054331;28;20021;-84
2023/04/09 10:18:58;;;;;;;16.85;10.98;;;14.50;74.80;;;;;;5056196;28;20081;-84
2023/04/09 10:21:46;;;;;;;18.90;11.65;;;15.00;74.60;;;;;;5037661;28;20063;-84
2023/04/09 10:24:12;;;;;;;19.02;12.05;;;15.40;74.10;;;;;;5054949;28;20398;-83
2023/04/09 10:26:43;;;;;;;18.48;11.63;;;15.90;72.90;;;;;;5056160;28;20476;-85
2023/04/09 10:29:14;;;;;;;17.88;11.60;;;16.50;71.50;;;;;;5038027;28;20056;-85
2023/04/09 10:32:05;;;;;;;17.67;11.20;;;17.10;70.70;;;;;;5055335;28;20052;-86
2023/04/09 10:34:36;;;;;;;13.63;9.27;;;18.00;70.50;;;;;;5037766;28;20477;-84
2023/04/09 10:37:02;;;;;;;12.05;8.95;;;18.80;68.10;;;;;;5055236;28;20108;-83
2023/04/09 10:39:32;;;;;;;11.60;8.40;;;19.50;64.30;;;;;;5053618;28;20017;-85
2023/04/09 10:42:01;;;;;;;12.40;8.77;;;20.20;62.20;;;;;;5037693;28;20032;-84
2023/04/09 10:44:30;;;;;;;11.02;8.00;;;20.80;60.70;;;;;;5055683;28;20235;-85
2023/04/09 10:46:56;;;;;;;13.00;8.63;;;21.40;60.50;;;;;;5055337;28;20025;-83
2023/04/09 10:49:26;;;;;;;10.20;7.40;;;22.10;57.60;;;;;;5057192;28;20032;-84
2023/04/09 10:51:53;;;;;;;10.15;7.40;;;22.60;56.80;;;;;;5057268;28;20081;-84
2023/04/09 10:54:33;;;;;;;10.55;7.28;;;23.10;54.10;;;;;;5058208;28;20029;-82
2023/04/09 10:57:06;;;;;;;13.05;8.13;;;23.60;52.20;;;;;;5075041;28;20470;-83
2023/04/09 10:59:41;;;;;;;12.82;8.68;;;24.00;50.10;;;;;;5052906;28;20116;-82
2023/04/09 11:02:12;;;;;;;11.95;9.48;;;24.40;49.50;;;;;;5034107;28;20017;-85
2023/04/09 11:05:08;;;;;;;12.80;9.30;;;24.60;48.50;;;;;;5055286;28;20448;-84
2023/04/09 11:07:39;;;;;;;12.50;8.95;;;24.50;46.70;;;;;;5056534;28;20393;-84
2023/04/09 11:10:05;;;;;;;11.23;8.00;;;24.20;46.10;;;;;;5043648;28;20423;-85
2023/04/09 11:12:32;;;;;;;10.50;7.30;;;24.30;47.30;;;;;;5025123;28;20033;-85
2023/04/09 11:14:58;;;;;;;7.53;5.07;;;24.70;47.00;;;;;;5057313;28;20020;-84
2023/04/09 11:17:24;;;;;;;7.85;5.20;;;25.10;45.80;;;;;;5040564;28;20496;-85
2023/04/09 11:19:49;;;;;;;6.60;4.70;;;25.50;45.10;;;;;;5057074;28;20012;-84
2023/04/09 11:22:15;;;;;;;6.80;4.35;;;25.90;45.20;;;;;;5040461;28;20025;-85
2023/04/09 11:24:42;;;;;;;6.00;3.63;;;26.40;43.90;;;;;;5042180;28;20043;-85
2023/04/09 11:27:08;;;;;;;5.68;3.58;;;26.90;43.90;;;;;;5059424;28;20058;-86
2023/04/09 11:29:35;;;;;;;4.68;3.35;;;27.30;43.20;;;;;;5059283;28;20426;-86
2023/04/09 11:32:01;;;;;;;6.07;3.92;;;27.60;42.80;;;;;;5058681;28;20046;-85
2023/04/09 11:34:33;;;;;;;6.47;4.55;;;28.00;41.40;;;;;;5041412;28;20021;-85
2023/04/09 11:37:01;;;;;;;4.93;3.60;;;28.20;40.40;;;;;;5039552;28;20048;-84
2023/04/09 11:39:27;;;;;;;6.43;4.30;;;28.40;39.40;;;;;;5056909;28;20032;-85
2023/04/09 11:41:52;;;;;;;6.28;4.13;;;28.60;38.40;;;;;;5057386;28;20027;-85
2023/04/09 11:44:20;;;;;;;5.65;3.88;;;28.60;37.30;;;;;;5058223;28;20032;-84
2023/04/09 11:46:47;;;;;;;5.05;3.55;;;28.70;37.60;;;;;;5057862;28;20484;-85
2023/04/09 11:49:13;;;;;;;6.10;4.28;;;28.80;36.30;;;;;;5040159;28;20031;-86
2023/04/09 11:51:39;;;;;;;5.30;3.88;;;28.90;35.60;;;;;;5057134;28;20119;-85
2023/04/09 11:54:07;;;;;;;5.28;4.03;;;29.00;35.50;;;;;;5057335;28;20088;-86
2023/04/09 11:56:35;;;;;;;5.82;4.22;;;29.20;36.00;;;;;;5060432;28;20033;-85
2023/04/09 11:59:02;;;;;;;5.90;4.20;;;29.40;36.00;;;;;;5061697;28;20048;-85
2023/04/09 12:01:34;;;;;;;6.00;4.68;;;29.70;35.40;;;;;;5060782;28;20063;-85
2023/04/09 12:04:00;;;;;;;6.25;4.65;;;29.80;34.90;;;;;;5043160;28;20035;-84
2023/04/09 12:06:26;;;;;;;5.93;4.47;;;30.00;34.20;;;;;;5062575;28;20365;-86
2023/04/09 12:08:57;;;;;;;7.78;4.88;;;30.00;35.70;;;;;;5040368;28;20440;-87
2023/04/09 12:11:31;;;;;;;6.20;5.07;;;30.10;35.00;;;;;;5036656;28;20052;-87
2023/04/09 12:14:01;;;;;;;7.50;5.50;;;30.40;35.20;;;;;;5041325;28;20100;-86
2023/04/09 12:16:40;;;;;;;6.75;4.97;;;30.60;35.00;;;;;;5016593;28;20025;-85
2023/04/09 12:19:08;;;;;;;9.75;7.03;;;30.80;34.60;;;;;;5032131;28;20021;-86
2023/04/09 12:21:48;;;;;;;8.13;6.18;;;30.80;33.20;;;;;;5040831;28;20040;-85
2023/04/09 12:24:19;;;;;;;8.68;6.43;;;30.60;33.20;;;;;;5050919;28;20016;-83
2023/04/09 12:26:45;;;;;;;8.80;7.28;;;30.40;33.20;;;;;;5051871;28;20035;-84
2023/04/09 12:29:13;;;;;;;9.20;6.63;;;30.10;33.20;;;;;;5035807;28;20025;-84
2023/04/09 12:31:39;;;;;;;9.05;6.82;;;29.80;33.20;;;;;;5035537;28;20029;-86
2023/04/09 12:34:05;;;;;;;9.40;7.05;;;29.60;33.70;;;;;;5053354;28;20500;-83